Main page
METAR-TAF:

METAR-TAF

Airports :

Wattay International Airport

Vientiane, Laos

latitude: 17-57N, longitude: 102-34E, elevation: 171 m

Current weather observation

The report was made 5 hours and 12 minutes ago, at 16:00 UTC
Wind 4 kt from the Northwest
Temperature 26°C
Humidity 70%
Pressure 1014 hPa
Visibility: 4000 m
Few clouds at a height of 4000 ft
mist

METAR: VLVT 011600Z 32004KT 4000 BR FEW040 26/20 Q1014 NOSIG

Time: 04:12 (21:12 UTC)

Forecast

The report was made 4 hours and 12 minutes ago, at 17:00 UTC
Forecast valid from 01 at 18 UTC to 02 at 18 UTC
Wind 6 kt from the East/Southeast
Visibility: 4000 m
Scattered clouds at a height of 1600 ft
Scattered clouds at a height of 20000 ft
mist

TAF: VLVT 011700Z 0118/0218 12006KT 4000 BR SCT016 SCT200

Weather observations and forecasts of more than 4000 airports (METAR and TAF reports).

The available stations are represented by yellow and red dots on the map.

Hover mouse over dot to see the name of the station.

Then click to see weather observations and forecasts.

To change the map : click on the green buttons with a black cross to zoom in, on the green button with a dash to zoom out, or on the green arrows for adjacent maps.


METAR-TAF: